This is the latest recevied weather packets stored in our database for station/object 9W2CEW-1. If no packets are shown the sender has not sent any weather packets the latest 1 day(s).
| Time | Temp. | Humidity | Pressure | Rain* | Wind** | Luminosity | Snow |
|---|---|---|---|---|---|---|---|
| 1778054654 | 28.33° C | 82% | 1000.4 hPa | - | - | - | - |
| 1778053793 | 28.33° C | 81% | 1000.4 hPa | - | - | - | - |
| 1778053754 | 28.33° C | 81% | 1000.4 hPa | - | - | - | - |
| 1778052854 | 32.78° C | 63% | 1000.3 hPa | - | - | - | - |
| 1778051954 | 32.78° C | 63% | 999.7 hPa | - | - | - | - |
| 1778051054 | 33.33° C | 62% | 1000 hPa | - | - | - | - |
| 1778050154 | 35° C | 57% | 1000.5 hPa | - | - | - | - |
| 1778049254 | 35° C | 58% | 1000.9 hPa | - | - | - | - |
| 1778047545 | 32.78° C | 64% | 1001.4 hPa | - | - | - | - |
| 1778044753 | 37.22° C | 45% | 1002.4 hPa | - | - | - | - |
| 1778043853 | 38.89° C | 41% | 1002.5 hPa | - | - | - | - |
| 1778042953 | 37.78° C | 44% | 1002.7 hPa | - | - | - | - |
| 1778042053 | 44.44° C | 33% | 1002.8 hPa | - | - | - | - |
| 1778041159 | 40° C | 40% | 1003 hPa | - | - | - | - |
| 1778040253 | 39.44° C | 41% | 1003.2 hPa | - | - | - | - |
| 1778038452 | 39.44° C | 42% | 1003.8 hPa | - | - | - | - |
| 1778037554 | 37.22° C | 46% | 1003.9 hPa | - | - | - | - |
| 1778036652 | 36.11° C | 49% | 1004.1 hPa | - | - | - | - |
| 1778035752 | 36.11° C | 52% | 1004.1 hPa | - | - | - | - |
| 1778033952 | 35° C | 58% | 1004.2 hPa | - | - | - | - |
| 1778033053 | 35° C | 58% | 1004.5 hPa | - | - | - | - |
| 1778032155 | 33.89° C | 61% | 1004.5 hPa | - | - | - | - |
| 1778031253 | 35.56° C | 56% | 1004.3 hPa | - | - | - | - |
| 1778030353 | 36.11° C | 57% | 1004.1 hPa | - | - | - | - |
| 1778029453 | 35.56° C | 57% | 1003.8 hPa | - | - | - | - |
* Rain since midnight (hover to see other rain measurements)
** Current wind speed in m/s (hover to see current wind gust speed)